sensor_id;sensor_type;location;lat;lon;timestamp;temperature;humidity
18361;SHT31;9308;48.550;9.108;2022-09-21T00:01:16;8.81;75.02
18361;SHT31;9308;48.550;9.108;2022-09-21T00:03:42;8.81;75.12
18361;SHT31;9308;48.550;9.108;2022-09-21T00:06:11;8.83;74.73
18361;SHT31;9308;48.550;9.108;2022-09-21T00:08:37;8.70;75.07
18361;SHT31;9308;48.550;9.108;2022-09-21T00:11:03;8.70;75.09
18361;SHT31;9308;48.550;9.108;2022-09-21T00:13:31;8.70;75.32
18361;SHT31;9308;48.550;9.108;2022-09-21T00:15:58;8.50;75.90
18361;SHT31;9308;48.550;9.108;2022-09-21T00:18:24;8.60;75.73
18361;SHT31;9308;48.550;9.108;2022-09-21T00:20:50;8.76;75.19
18361;SHT31;9308;48.550;9.108;2022-09-21T00:23:18;8.79;74.96
18361;SHT31;9308;48.550;9.108;2022-09-21T00:25:43;8.66;74.85
18361;SHT31;9308;48.550;9.108;2022-09-21T00:28:09;8.59;74.90
18361;SHT31;9308;48.550;9.108;2022-09-21T00:30:36;8.59;75.05
18361;SHT31;9308;48.550;9.108;2022-09-21T00:33:01;8.37;75.57
18361;SHT31;9308;48.550;9.108;2022-09-21T00:35:27;8.24;76.22
18361;SHT31;9308;48.550;9.108;2022-09-21T00:37:52;8.31;75.80
18361;SHT31;9308;48.550;9.108;2022-09-21T00:40:18;8.35;75.31
18361;SHT31;9308;48.550;9.108;2022-09-21T00:42:43;8.24;75.66
18361;SHT31;9308;48.550;9.108;2022-09-21T00:45:11;8.24;75.95
18361;SHT31;9308;48.550;9.108;2022-09-21T00:47:48;8.24;75.66
18361;SHT31;9308;48.550;9.108;2022-09-21T00:50:17;8.24;75.32
18361;SHT31;9308;48.550;9.108;2022-09-21T00:52:46;8.22;75.28
18361;SHT31;9308;48.550;9.108;2022-09-21T00:55:20;8.14;75.19
18361;SHT31;9308;48.550;9.108;2022-09-21T00:57:49;8.04;75.86
18361;SHT31;9308;48.550;9.108;2022-09-21T01:00:16;8.03;75.92
18361;SHT31;9308;48.550;9.108;2022-09-21T01:02:42;7.93;76.22
18361;SHT31;9308;48.550;9.108;2022-09-21T01:05:10;8.07;75.73
18361;SHT31;9308;48.550;9.108;2022-09-21T01:07:38;8.03;75.71
18361;SHT31;9308;48.550;9.108;2022-09-21T01:10:09;8.07;76.03
18361;SHT31;9308;48.550;9.108;2022-09-21T01:17:55;7.97;76.68
18361;SHT31;9308;48.550;9.108;2022-09-21T01:20:54;8.17;75.93
18361;SHT31;9308;48.550;9.108;2022-09-21T01:23:52;8.01;76.68
18361;SHT31;9308;48.550;9.108;2022-09-21T01:27:22;7.69;77.29
18361;SHT31;9308;48.550;9.108;2022-09-21T01:32:47;7.90;76.42
18361;SHT31;9308;48.550;9.108;2022-09-21T01:35:34;7.87;75.76
18361;SHT31;9308;48.550;9.108;2022-09-21T01:38:05;7.97;75.81
18361;SHT31;9308;48.550;9.108;2022-09-21T01:40:48;7.86;76.16
18361;SHT31;9308;48.550;9.108;2022-09-21T01:43:20;7.80;76.23
18361;SHT31;9308;48.550;9.108;2022-09-21T01:45:50;7.75;76.08
18361;SHT31;9308;48.550;9.108;2022-09-21T01:48:17;7.69;76.03
18361;SHT31;9308;48.550;9.108;2022-09-21T01:50:46;7.56;76.39
18361;SHT31;9308;48.550;9.108;2022-09-21T01:53:29;7.53;76.87
18361;SHT31;9308;48.550;9.108;2022-09-21T01:56:03;7.61;76.75
18361;SHT31;9308;48.550;9.108;2022-09-21T01:58:49;7.65;76.45
18361;SHT31;9308;48.550;9.108;2022-09-21T02:01:20;7.58;77.05
18361;SHT31;9308;48.550;9.108;2022-09-21T02:03:52;7.55;76.89
18361;SHT31;9308;48.550;9.108;2022-09-21T02:06:18;7.82;76.32
18361;SHT31;9308;48.550;9.108;2022-09-21T02:08:45;7.51;76.83
18361;SHT31;9308;48.550;9.108;2022-09-21T02:11:10;7.58;76.94
18361;SHT31;9308;48.550;9.108;2022-09-21T02:13:42;7.61;76.51
18361;SHT31;9308;48.550;9.108;2022-09-21T02:16:35;7.62;76.16
18361;SHT31;9308;48.550;9.108;2022-09-21T02:19:28;7.62;75.95
18361;SHT31;9308;48.550;9.108;2022-09-21T02:22:04;7.41;76.45
18361;SHT31;9308;48.550;9.108;2022-09-21T02:24:44;7.30;77.04
18361;SHT31;9308;48.550;9.108;2022-09-21T02:27:27;7.34;76.78
18361;SHT31;9308;48.550;9.108;2022-09-21T02:30:05;7.35;76.60
18361;SHT31;9308;48.550;9.108;2022-09-21T02:32:42;7.42;76.32
18361;SHT31;9308;48.550;9.108;2022-09-21T02:35:30;7.42;76.48
18361;SHT31;9308;48.550;9.108;2022-09-21T02:38:04;7.25;76.44
18361;SHT31;9308;48.550;9.108;2022-09-21T02:40:50;7.42;75.91
18361;SHT31;9308;48.550;9.108;2022-09-21T02:43:29;7.24;76.14
18361;SHT31;9308;48.550;9.108;2022-09-21T02:46:02;7.32;76.10
18361;SHT31;9308;48.550;9.108;2022-09-21T02:48:36;7.30;75.64
18361;SHT31;9308;48.550;9.108;2022-09-21T02:51:07;7.20;76.02
18361;SHT31;9308;48.550;9.108;2022-09-21T02:53:35;7.17;76.08
18361;SHT31;9308;48.550;9.108;2022-09-21T02:56:03;7.13;75.92
18361;SHT31;9308;48.550;9.108;2022-09-21T02:58:34;7.11;76.04
18361;SHT31;9308;48.550;9.108;2022-09-21T03:01:02;6.90;75.97
18361;SHT31;9308;48.550;9.108;2022-09-21T03:03:31;6.85;76.11
18361;SHT31;9308;48.550;9.108;2022-09-21T03:05:57;6.97;75.87
18361;SHT31;9308;48.550;9.108;2022-09-21T03:08:23;6.96;75.46
18361;SHT31;9308;48.550;9.108;2022-09-21T03:10:48;6.87;76.26
18361;SHT31;9308;48.550;9.108;2022-09-21T03:13:15;6.73;76.99
18361;SHT31;9308;48.550;9.108;2022-09-21T03:15:42;6.85;76.68
18361;SHT31;9308;48.550;9.108;2022-09-21T03:18:08;6.82;76.67
18361;SHT31;9308;48.550;9.108;2022-09-21T03:20:35;6.71;77.44
18361;SHT31;9308;48.550;9.108;2022-09-21T03:23:01;6.52;78.24
18361;SHT31;9308;48.550;9.108;2022-09-21T03:25:29;6.69;77.62
18361;SHT31;9308;48.550;9.108;2022-09-21T03:27:55;6.71;77.00
18361;SHT31;9308;48.550;9.108;2022-09-21T03:30:22;6.66;77.60
18361;SHT31;9308;48.550;9.108;2022-09-21T03:32:50;6.82;76.99
18361;SHT31;9308;48.550;9.108;2022-09-21T03:35:17;6.85;77.13
18361;SHT31;9308;48.550;9.108;2022-09-21T03:37:42;6.82;77.08
18361;SHT31;9308;48.550;9.108;2022-09-21T03:40:09;6.90;76.75
18361;SHT31;9308;48.550;9.108;2022-09-21T03:42:35;6.85;76.85
18361;SHT31;9308;48.550;9.108;2022-09-21T03:45:01;6.97;76.39
18361;SHT31;9308;48.550;9.108;2022-09-21T03:47:26;6.65;76.58
18361;SHT31;9308;48.550;9.108;2022-09-21T03:49:53;6.75;77.39
18361;SHT31;9308;48.550;9.108;2022-09-21T03:52:18;6.69;76.93
18361;SHT31;9308;48.550;9.108;2022-09-21T03:54:44;6.80;76.88
18361;SHT31;9308;48.550;9.108;2022-09-21T03:57:09;6.75;76.64
18361;SHT31;9308;48.550;9.108;2022-09-21T03:59:35;6.73;76.48
18361;SHT31;9308;48.550;9.108;2022-09-21T04:02:00;6.69;76.39
18361;SHT31;9308;48.550;9.108;2022-09-21T04:04:25;6.60;76.30
18361;SHT31;9308;48.550;9.108;2022-09-21T04:06:51;6.55;76.95
18361;SHT31;9308;48.550;9.108;2022-09-21T04:09:16;6.64;77.07
18361;SHT31;9308;48.550;9.108;2022-09-21T04:11:44;6.56;77.22
18361;SHT31;9308;48.550;9.108;2022-09-21T04:14:10;6.62;76.80
18361;SHT31;9308;48.550;9.108;2022-09-21T04:16:36;6.37;76.92
18361;SHT31;9308;48.550;9.108;2022-09-21T04:19:02;6.48;77.08
18361;SHT31;9308;48.550;9.108;2022-09-21T04:21:27;6.24;77.52
18361;SHT31;9308;48.550;9.108;2022-09-21T04:23:53;6.35;77.74
18361;SHT31;9308;48.550;9.108;2022-09-21T04:26:29;6.60;76.89
18361;SHT31;9308;48.550;9.108;2022-09-21T04:28:56;6.46;77.29
18361;SHT31;9308;48.550;9.108;2022-09-21T04:31:23;6.48;77.42
18361;SHT31;9308;48.550;9.108;2022-09-21T04:33:50;6.60;77.05
18361;SHT31;9308;48.550;9.108;2022-09-21T04:36:17;6.59;77.61
18361;SHT31;9308;48.550;9.108;2022-09-21T04:38:43;6.75;77.14
18361;SHT31;9308;48.550;9.108;2022-09-21T04:41:08;6.65;76.99
18361;SHT31;9308;48.550;9.108;2022-09-21T04:43:34;6.48;76.59
18361;SHT31;9308;48.550;9.108;2022-09-21T04:46:06;6.28;77.44
18361;SHT31;9308;48.550;9.108;2022-09-21T04:48:32;6.28;77.37
18361;SHT31;9308;48.550;9.108;2022-09-21T04:50:58;6.29;77.51
18361;SHT31;9308;48.550;9.108;2022-09-21T04:53:23;6.37;77.48
18361;SHT31;9308;48.550;9.108;2022-09-21T04:55:49;6.56;77.05
18361;SHT31;9308;48.550;9.108;2022-09-21T04:58:14;6.21;77.55
18361;SHT31;9308;48.550;9.108;2022-09-21T05:00:40;6.28;77.60
18361;SHT31;9308;48.550;9.108;2022-09-21T05:03:05;6.32;77.58
18361;SHT31;9308;48.550;9.108;2022-09-21T05:05:31;6.29;77.55
18361;SHT31;9308;48.550;9.108;2022-09-21T05:07:57;6.21;78.01
18361;SHT31;9308;48.550;9.108;2022-09-21T05:10:22;6.35;77.84
18361;SHT31;9308;48.550;9.108;2022-09-21T05:12:48;6.42;77.29
18361;SHT31;9308;48.550;9.108;2022-09-21T05:15:14;6.53;76.73
18361;SHT31;9308;48.550;9.108;2022-09-21T05:17:40;6.65;76.14
18361;SHT31;9308;48.550;9.108;2022-09-21T05:20:06;6.58;76.28
18361;SHT31;9308;48.550;9.108;2022-09-21T05:22:31;6.66;75.91
18361;SHT31;9308;48.550;9.108;2022-09-21T05:24:57;6.66;75.84
18361;SHT31;9308;48.550;9.108;2022-09-21T05:27:22;6.55;76.40
18361;SHT31;9308;48.550;9.108;2022-09-21T05:29:48;6.73;75.87
18361;SHT31;9308;48.550;9.108;2022-09-21T05:37:43;6.49;76.98
18361;SHT31;9308;48.550;9.108;2022-09-21T05:40:10;6.66;76.79
18361;SHT31;9308;48.550;9.108;2022-09-21T05:42:36;6.76;76.64
18361;SHT31;9308;48.550;9.108;2022-09-21T05:45:02;6.82;76.25
18361;SHT31;9308;48.550;9.108;2022-09-21T05:58:35;7.20;75.34
18361;SHT31;9308;48.550;9.108;2022-09-21T06:01:35;7.30;75.03
18361;SHT31;9308;48.550;9.108;2022-09-21T06:04:08;7.30;75.30
18361;SHT31;9308;48.550;9.108;2022-09-21T06:06:35;7.53;74.86
18361;SHT31;9308;48.550;9.108;2022-09-21T06:09:00;7.66;74.50
18361;SHT31;9308;48.550;9.108;2022-09-21T06:11:26;7.59;74.89
18361;SHT31;9308;48.550;9.108;2022-09-21T06:13:52;7.58;75.23
18361;SHT31;9308;48.550;9.108;2022-09-21T06:16:17;7.61;75.42
18361;SHT31;9308;48.550;9.108;2022-09-21T06:18:42;7.67;75.84
18361;SHT31;9308;48.550;9.108;2022-09-21T06:21:08;7.75;75.88
18361;SHT31;9308;48.550;9.108;2022-09-21T06:23:34;7.75;76.27
18361;SHT31;9308;48.550;9.108;2022-09-21T06:25:59;8.07;75.87
18361;SHT31;9308;48.550;9.108;2022-09-21T06:28:25;8.00;75.82
18361;SHT31;9308;48.550;9.108;2022-09-21T06:30:53;8.07;76.12
18361;SHT31;9308;48.550;9.108;2022-09-21T06:33:19;8.10;76.79
18361;SHT31;9308;48.550;9.108;2022-09-21T06:35:54;8.20;76.65
18361;SHT31;9308;48.550;9.108;2022-09-21T06:38:21;8.31;76.38
18361;SHT31;9308;48.550;9.108;2022-09-21T06:40:46;8.42;76.23
18361;SHT31;9308;48.550;9.108;2022-09-21T06:43:12;8.45;76.52
18361;SHT31;9308;48.550;9.108;2022-09-21T06:45:37;8.57;76.12
18361;SHT31;9308;48.550;9.108;2022-09-21T06:48:03;8.70;76.42
18361;SHT31;9308;48.550;9.108;2022-09-21T06:50:28;8.76;76.43
18361;SHT31;9308;48.550;9.108;2022-09-21T06:52:54;9.13;74.79
18361;SHT31;9308;48.550;9.108;2022-09-21T06:55:19;9.13;75.27
18361;SHT31;9308;48.550;9.108;2022-09-21T06:57:45;8.99;76.27
18361;SHT31;9308;48.550;9.108;2022-09-21T07:00:12;9.31;75.44
18361;SHT31;9308;48.550;9.108;2022-09-21T07:02:41;9.31;75.58
18361;SHT31;9308;48.550;9.108;2022-09-21T07:05:07;9.28;76.32
18361;SHT31;9308;48.550;9.108;2022-09-21T07:07:32;9.36;75.95
18361;SHT31;9308;48.550;9.108;2022-09-21T07:09:58;9.48;75.37
18361;SHT31;9308;48.550;9.108;2022-09-21T07:12:27;9.74;75.25
18361;SHT31;9308;48.550;9.108;2022-09-21T07:14:52;9.71;74.76
18361;SHT31;9308;48.550;9.108;2022-09-21T07:17:18;9.76;75.45
18361;SHT31;9308;48.550;9.108;2022-09-21T07:19:43;9.86;75.82
18361;SHT31;9308;48.550;9.108;2022-09-21T07:22:09;10.00;75.10
18361;SHT31;9308;48.550;9.108;2022-09-21T07:24:34;10.18;75.11
18361;SHT31;9308;48.550;9.108;2022-09-21T07:27:00;10.36;75.05
18361;SHT31;9308;48.550;9.108;2022-09-21T07:29:25;10.46;73.75
18361;SHT31;9308;48.550;9.108;2022-09-21T07:31:51;10.58;72.97
18361;SHT31;9308;48.550;9.108;2022-09-21T07:34:16;10.71;73.53
18361;SHT31;9308;48.550;9.108;2022-09-21T07:36:42;10.82;72.81
18361;SHT31;9308;48.550;9.108;2022-09-21T07:39:08;11.14;72.19
18361;SHT31;9308;48.550;9.108;2022-09-21T07:41:34;11.00;73.07
18361;SHT31;9308;48.550;9.108;2022-09-21T07:43:59;11.20;72.92
18361;SHT31;9308;48.550;9.108;2022-09-21T07:46:25;11.25;72.58
18361;SHT31;9308;48.550;9.108;2022-09-21T07:48:54;11.54;71.23
18361;SHT31;9308;48.550;9.108;2022-09-21T07:51:19;11.79;71.11
18361;SHT31;9308;48.550;9.108;2022-09-21T07:53:45;11.85;71.43
18361;SHT31;9308;48.550;9.108;2022-09-21T07:56:13;11.89;70.06
18361;SHT31;9308;48.550;9.108;2022-09-21T07:58:39;12.07;70.39
18361;SHT31;9308;48.550;9.108;2022-09-21T08:01:24;12.30;68.75
18361;SHT31;9308;48.550;9.108;2022-09-21T08:03:53;12.32;70.09
18361;SHT31;9308;48.550;9.108;2022-09-21T08:06:19;12.44;68.45
18361;SHT31;9308;48.550;9.108;2022-09-21T08:08:45;12.48;69.09
18361;SHT31;9308;48.550;9.108;2022-09-21T08:11:16;12.69;69.63
18361;SHT31;9308;48.550;9.108;2022-09-21T08:13:42;12.86;68.64
18361;SHT31;9308;48.550;9.108;2022-09-21T08:16:08;12.89;69.07
18361;SHT31;9308;48.550;9.108;2022-09-21T08:18:38;12.86;68.31
18361;SHT31;9308;48.550;9.108;2022-09-21T08:21:04;12.62;68.24
18361;SHT31;9308;48.550;9.108;2022-09-21T08:23:30;12.90;67.71
18361;SHT31;9308;48.550;9.108;2022-09-21T08:25:59;13.30;67.69
18361;SHT31;9308;48.550;9.108;2022-09-21T08:28:27;13.28;67.23
18361;SHT31;9308;48.550;9.108;2022-09-21T08:30:53;13.65;66.94
18361;SHT31;9308;48.550;9.108;2022-09-21T08:33:18;13.76;65.47
18361;SHT31;9308;48.550;9.108;2022-09-21T08:35:54;13.89;66.25
18361;SHT31;9308;48.550;9.108;2022-09-21T08:38:19;13.79;66.29
18361;SHT31;9308;48.550;9.108;2022-09-21T08:40:45;13.85;63.61
18361;SHT31;9308;48.550;9.108;2022-09-21T08:43:20;14.24;64.50
18361;SHT31;9308;48.550;9.108;2022-09-21T08:45:47;14.35;63.76
18361;SHT31;9308;48.550;9.108;2022-09-21T08:48:25;14.11;63.89
18361;SHT31;9308;48.550;9.108;2022-09-21T08:50:53;14.47;62.08
18361;SHT31;9308;48.550;9.108;2022-09-21T08:53:34;14.42;63.33
18361;SHT31;9308;48.550;9.108;2022-09-21T08:56:00;14.52;63.14
18361;SHT31;9308;48.550;9.108;2022-09-21T08:58:29;14.68;62.37
18361;SHT31;9308;48.550;9.108;2022-09-21T09:01:27;14.58;62.03
18361;SHT31;9308;48.550;9.108;2022-09-21T09:04:33;14.92;60.70
18361;SHT31;9308;48.550;9.108;2022-09-21T09:10:40;15.21;62.04
18361;SHT31;9308;48.550;9.108;2022-09-21T09:13:36;15.68;60.44
18361;SHT31;9308;48.550;9.108;2022-09-21T09:18:40;16.05;58.70
18361;SHT31;9308;48.550;9.108;2022-09-21T09:21:12;16.17;58.00
18361;SHT31;9308;48.550;9.108;2022-09-21T09:23:55;16.33;57.95
18361;SHT31;9308;48.550;9.108;2022-09-21T09:26:39;16.64;57.02
18361;SHT31;9308;48.550;9.108;2022-09-21T09:31:36;17.71;53.34
18361;SHT31;9308;48.550;9.108;2022-09-21T09:34:14;17.93;53.42
18361;SHT31;9308;48.550;9.108;2022-09-21T09:36:48;18.79;51.82
18361;SHT31;9308;48.550;9.108;2022-09-21T09:39:15;19.43;50.05
18361;SHT31;9308;48.550;9.108;2022-09-21T09:45:17;20.14;47.02
18361;SHT31;9308;48.550;9.108;2022-09-21T09:50:33;23.36;41.63
18361;SHT31;9308;48.550;9.108;2022-09-21T09:53:11;22.49;42.23
18361;SHT31;9308;48.550;9.108;2022-09-21T09:55:39;27.27;36.21
18361;SHT31;9308;48.550;9.108;2022-09-21T09:58:29;32.64;27.16
18361;SHT31;9308;48.550;9.108;2022-09-21T10:00:56;34.72;24.79
18361;SHT31;9308;48.550;9.108;2022-09-21T10:03:25;37.02;22.54
18361;SHT31;9308;48.550;9.108;2022-09-21T10:05:51;37.62;21.24
18361;SHT31;9308;48.550;9.108;2022-09-21T10:11:01;38.97;20.38
18361;SHT31;9308;48.550;9.108;2022-09-21T10:13:30;39.37;19.84
18361;SHT31;9308;48.550;9.108;2022-09-21T10:15:58;40.13;18.28
18361;SHT31;9308;48.550;9.108;2022-09-21T10:21:05;32.71;24.37
18361;SHT31;9308;48.550;9.108;2022-09-21T10:23:32;38.29;20.55
18361;SHT31;9308;48.550;9.108;2022-09-21T10:26:07;34.35;25.07
18361;SHT31;9308;48.550;9.108;2022-09-21T10:28:34;39.21;20.38
18361;SHT31;9308;48.550;9.108;2022-09-21T10:31:15;37.73;21.07
18361;SHT31;9308;48.550;9.108;2022-09-21T10:33:51;33.76;25.13
18361;SHT31;9308;48.550;9.108;2022-09-21T10:36:26;33.81;25.12
18361;SHT31;9308;48.550;9.108;2022-09-21T10:38:52;31.10;26.63
18361;SHT31;9308;48.550;9.108;2022-09-21T10:41:17;24.70;36.03
18361;SHT31;9308;48.550;9.108;2022-09-21T10:43:43;36.94;22.36
18361;SHT31;9308;48.550;9.108;2022-09-21T10:46:09;39.07;19.91
18361;SHT31;9308;48.550;9.108;2022-09-21T10:48:35;43.56;17.05
18361;SHT31;9308;48.550;9.108;2022-09-21T10:51:02;34.20;24.21
18361;SHT31;9308;48.550;9.108;2022-09-21T10:53:33;43.28;17.10
18361;SHT31;9308;48.550;9.108;2022-09-21T10:56:04;35.89;21.12
18361;SHT31;9308;48.550;9.108;2022-09-21T10:58:31;42.81;17.39
18361;SHT31;9308;48.550;9.108;2022-09-21T11:01:20;38.00;19.64
18361;SHT31;9308;48.550;9.108;2022-09-21T11:03:57;38.22;20.22
18361;SHT31;9308;48.550;9.108;2022-09-21T11:06:30;42.44;16.62
18361;SHT31;9308;48.550;9.108;2022-09-21T11:09:13;32.46;25.15
18361;SHT31;9308;48.550;9.108;2022-09-21T11:14:21;33.74;23.36
18361;SHT31;9308;48.550;9.108;2022-09-21T11:16:59;40.75;19.11
18361;SHT31;9308;48.550;9.108;2022-09-21T11:19:43;46.26;15.11
18361;SHT31;9308;48.550;9.108;2022-09-21T11:22:36;46.87;15.38
18361;SHT31;9308;48.550;9.108;2022-09-21T11:25:25;48.79;13.98
18361;SHT31;9308;48.550;9.108;2022-09-21T11:28:21;45.98;13.98
18361;SHT31;9308;48.550;9.108;2022-09-21T11:31:04;33.69;25.16
18361;SHT31;9308;48.550;9.108;2022-09-21T11:47:52;31.67;23.60
18361;SHT31;9308;48.550;9.108;2022-09-21T11:53:39;24.67;34.24
18361;SHT31;9308;48.550;9.108;2022-09-21T11:56:40;37.52;19.58
18361;SHT31;9308;48.550;9.108;2022-09-21T11:59:16;37.02;19.68
18361;SHT31;9308;48.550;9.108;2022-09-21T12:04:41;35.23;21.77
18361;SHT31;9308;48.550;9.108;2022-09-21T12:15:47;25.73;32.10
18361;SHT31;9308;48.550;9.108;2022-09-21T12:18:33;24.19;32.90
18361;SHT31;9308;48.550;9.108;2022-09-21T12:21:23;23.03;35.49
18361;SHT31;9308;48.550;9.108;2022-09-21T12:23:53;23.25;37.27
18361;SHT31;9308;48.550;9.108;2022-09-21T12:26:26;22.30;37.94
18361;SHT31;9308;48.550;9.108;2022-09-21T12:29:05;21.82;37.96
18361;SHT31;9308;48.550;9.108;2022-09-21T12:31:50;21.89;38.59
18361;SHT31;9308;48.550;9.108;2022-09-21T12:34:22;21.98;38.24
18361;SHT31;9308;48.550;9.108;2022-09-21T12:37:21;21.19;39.37
18361;SHT31;9308;48.550;9.108;2022-09-21T12:39:53;19.65;41.43
18361;SHT31;9308;48.550;9.108;2022-09-21T12:44:55;23.63;36.55
18361;SHT31;9308;48.550;9.108;2022-09-21T12:47:47;21.72;38.26
18361;SHT31;9308;48.550;9.108;2022-09-21T12:50:20;19.87;40.61
18361;SHT31;9308;48.550;9.108;2022-09-21T12:52:48;18.88;40.81
18361;SHT31;9308;48.550;9.108;2022-09-21T12:55:41;19.22;44.91
18361;SHT31;9308;48.550;9.108;2022-09-21T13:01:07;19.07;42.50
18361;SHT31;9308;48.550;9.108;2022-09-21T13:03:41;18.73;43.31
18361;SHT31;9308;48.550;9.108;2022-09-21T13:06:22;18.28;42.49
18361;SHT31;9308;48.550;9.108;2022-09-21T13:08:54;18.00;44.01
18361;SHT31;9308;48.550;9.108;2022-09-21T13:11:21;19.41;43.62
18361;SHT31;9308;48.550;9.108;2022-09-21T13:13:49;19.04;42.01
18361;SHT31;9308;48.550;9.108;2022-09-21T13:16:29;18.54;45.10
18361;SHT31;9308;48.550;9.108;2022-09-21T13:18:58;18.45;41.91
18361;SHT31;9308;48.550;9.108;2022-09-21T13:21:29;18.55;42.11
18361;SHT31;9308;48.550;9.108;2022-09-21T13:23:57;18.55;41.05
18361;SHT31;9308;48.550;9.108;2022-09-21T13:26:54;18.96;40.19
18361;SHT31;9308;48.550;9.108;2022-09-21T13:31:59;19.07;40.37
18361;SHT31;9308;48.550;9.108;2022-09-21T13:34:32;19.79;38.27
18361;SHT31;9308;48.550;9.108;2022-09-21T13:39:44;19.69;40.35
18361;SHT31;9308;48.550;9.108;2022-09-21T13:44:54;20.74;39.37
18361;SHT31;9308;48.550;9.108;2022-09-21T13:47:29;22.40;37.74
18361;SHT31;9308;48.550;9.108;2022-09-21T13:49:55;23.57;34.81
18361;SHT31;9308;48.550;9.108;2022-09-21T13:52:28;23.45;32.57
18361;SHT31;9308;48.550;9.108;2022-09-21T13:55:03;22.54;38.49
18361;SHT31;9308;48.550;9.108;2022-09-21T13:57:37;24.35;34.46
18361;SHT31;9308;48.550;9.108;2022-09-21T14:02:38;25.55;30.77
18361;SHT31;9308;48.550;9.108;2022-09-21T14:05:24;27.39;27.39
18361;SHT31;9308;48.550;9.108;2022-09-21T14:07:56;26.91;28.58
18361;SHT31;9308;48.550;9.108;2022-09-21T14:10:24;26.56;29.99
18361;SHT31;9308;48.550;9.108;2022-09-21T14:12:50;25.22;31.21
18361;SHT31;9308;48.550;9.108;2022-09-21T14:17:44;23.68;33.23
18361;SHT31;9308;48.550;9.108;2022-09-21T14:20:31;23.84;32.04
18361;SHT31;9308;48.550;9.108;2022-09-21T14:25:48;27.47;28.64
18361;SHT31;9308;48.550;9.108;2022-09-21T14:28:15;28.13;28.82
18361;SHT31;9308;48.550;9.108;2022-09-21T14:30:50;24.95;32.37
18361;SHT31;9308;48.550;9.108;2022-09-21T14:33:36;24.26;31.90
18361;SHT31;9308;48.550;9.108;2022-09-21T14:36:08;27.34;28.53
18361;SHT31;9308;48.550;9.108;2022-09-21T14:38:40;25.35;29.89
18361;SHT31;9308;48.550;9.108;2022-09-21T14:41:07;22.41;34.10
18361;SHT31;9308;48.550;9.108;2022-09-21T14:43:35;22.63;35.54
18361;SHT31;9308;48.550;9.108;2022-09-21T14:46:17;22.67;35.41
18361;SHT31;9308;48.550;9.108;2022-09-21T14:48:52;20.81;39.75
18361;SHT31;9308;48.550;9.108;2022-09-21T14:51:37;21.36;36.59
18361;SHT31;9308;48.550;9.108;2022-09-21T14:54:20;21.94;35.64
18361;SHT31;9308;48.550;9.108;2022-09-21T15:02:05;20.81;38.79
18361;SHT31;9308;48.550;9.108;2022-09-21T15:05:08;20.17;38.41
18361;SHT31;9308;48.550;9.108;2022-09-21T15:10:29;20.06;39.22
18361;SHT31;9308;48.550;9.108;2022-09-21T15:16:12;19.11;41.95
18361;SHT31;9308;48.550;9.108;2022-09-21T15:18:48;18.71;42.76
18361;SHT31;9308;48.550;9.108;2022-09-21T15:21:32;18.43;44.07
18361;SHT31;9308;48.550;9.108;2022-09-21T15:24:01;17.95;43.09
18361;SHT31;9308;48.550;9.108;2022-09-21T15:26:34;18.12;43.41
18361;SHT31;9308;48.550;9.108;2022-09-21T15:29:01;17.38;44.30
18361;SHT31;9308;48.550;9.108;2022-09-21T15:31:32;17.13;44.29
18361;SHT31;9308;48.550;9.108;2022-09-21T15:33:59;17.20;44.52
18361;SHT31;9308;48.550;9.108;2022-09-21T15:36:26;17.24;45.86
18361;SHT31;9308;48.550;9.108;2022-09-21T15:38:53;17.14;46.99
18361;SHT31;9308;48.550;9.108;2022-09-21T15:41:41;17.57;44.55
18361;SHT31;9308;48.550;9.108;2022-09-21T15:44:18;17.21;44.63
18361;SHT31;9308;48.550;9.108;2022-09-21T15:46:47;16.48;44.71
18361;SHT31;9308;48.550;9.108;2022-09-21T15:49:16;16.54;45.73
18361;SHT31;9308;48.550;9.108;2022-09-21T15:51:46;16.62;46.69
18361;SHT31;9308;48.550;9.108;2022-09-21T15:56:58;16.31;45.66
18361;SHT31;9308;48.550;9.108;2022-09-21T15:59:24;16.44;46.79
18361;SHT31;9308;48.550;9.108;2022-09-21T16:01:55;16.31;47.39
18361;SHT31;9308;48.550;9.108;2022-09-21T16:04:23;16.44;46.45
18361;SHT31;9308;48.550;9.108;2022-09-21T16:07:00;16.18;47.60
18361;SHT31;9308;48.550;9.108;2022-09-21T16:09:39;15.83;46.61
18361;SHT31;9308;48.550;9.108;2022-09-21T16:14:49;16.30;49.40
18361;SHT31;9308;48.550;9.108;2022-09-21T16:17:27;16.10;46.89
18361;SHT31;9308;48.550;9.108;2022-09-21T16:22:39;16.12;45.62
18361;SHT31;9308;48.550;9.108;2022-09-21T16:25:36;15.83;46.03
18361;SHT31;9308;48.550;9.108;2022-09-21T16:30:52;15.44;45.62
18361;SHT31;9308;48.550;9.108;2022-09-21T16:38:58;15.63;47.63
18361;SHT31;9308;48.550;9.108;2022-09-21T16:41:37;15.51;48.64
18361;SHT31;9308;48.550;9.108;2022-09-21T16:44:21;15.52;49.78
18361;SHT31;9308;48.550;9.108;2022-09-21T16:46:52;15.63;48.51
18361;SHT31;9308;48.550;9.108;2022-09-21T16:49:19;15.54;49.96
18361;SHT31;9308;48.550;9.108;2022-09-21T16:51:49;15.34;51.24
18361;SHT31;9308;48.550;9.108;2022-09-21T16:54:17;15.26;50.57
18361;SHT31;9308;48.550;9.108;2022-09-21T16:56:43;15.23;50.42
18361;SHT31;9308;48.550;9.108;2022-09-21T16:59:17;15.15;51.05
18361;SHT31;9308;48.550;9.108;2022-09-21T17:01:46;15.20;51.31
18361;SHT31;9308;48.550;9.108;2022-09-21T17:04:19;15.02;51.85
18361;SHT31;9308;48.550;9.108;2022-09-21T17:06:44;14.77;51.39
18361;SHT31;9308;48.550;9.108;2022-09-21T17:11:48;14.71;51.32
18361;SHT31;9308;48.550;9.108;2022-09-21T17:14:15;14.59;52.33
18361;SHT31;9308;48.550;9.108;2022-09-21T17:16:46;14.39;52.56
18361;SHT31;9308;48.550;9.108;2022-09-21T17:19:12;14.28;53.45
18361;SHT31;9308;48.550;9.108;2022-09-21T17:21:38;14.10;53.62
18361;SHT31;9308;48.550;9.108;2022-09-21T17:24:03;14.27;53.47
18361;SHT31;9308;48.550;9.108;2022-09-21T17:26:29;13.92;54.32
18361;SHT31;9308;48.550;9.108;2022-09-21T17:28:56;13.86;54.80
18361;SHT31;9308;48.550;9.108;2022-09-21T17:31:23;13.79;54.40
18361;SHT31;9308;48.550;9.108;2022-09-21T17:33:48;13.72;55.60
18361;SHT31;9308;48.550;9.108;2022-09-21T17:36:16;13.54;56.49
18361;SHT31;9308;48.550;9.108;2022-09-21T17:38:42;13.36;56.25
18361;SHT31;9308;48.550;9.108;2022-09-21T17:41:26;13.30;56.60
18361;SHT31;9308;48.550;9.108;2022-09-21T17:46:39;13.23;57.67
18361;SHT31;9308;48.550;9.108;2022-09-21T17:49:09;13.10;58.05
18361;SHT31;9308;48.550;9.108;2022-09-21T17:51:34;13.03;58.82
18361;SHT31;9308;48.550;9.108;2022-09-21T17:54:18;12.87;59.69
18361;SHT31;9308;48.550;9.108;2022-09-21T17:56:50;12.69;60.41
18361;SHT31;9308;48.550;9.108;2022-09-21T17:59:25;12.52;60.60
18361;SHT31;9308;48.550;9.108;2022-09-21T18:01:53;12.51;60.54
18361;SHT31;9308;48.550;9.108;2022-09-21T18:04:21;12.42;61.05
18361;SHT31;9308;48.550;9.108;2022-09-21T18:06:46;12.32;61.78
18361;SHT31;9308;48.550;9.108;2022-09-21T18:09:12;12.08;62.12
18361;SHT31;9308;48.550;9.108;2022-09-21T18:17:30;11.91;62.71
18361;SHT31;9308;48.550;9.108;2022-09-21T18:25:28;11.70;64.12
18361;SHT31;9308;48.550;9.108;2022-09-21T18:27:56;11.51;64.14
18361;SHT31;9308;48.550;9.108;2022-09-21T18:30:23;11.37;64.35
18361;SHT31;9308;48.550;9.108;2022-09-21T18:35:50;11.32;64.46
18361;SHT31;9308;48.550;9.108;2022-09-21T18:46:54;11.03;64.77
18361;SHT31;9308;48.550;9.108;2022-09-21T18:49:49;11.06;64.01
18361;SHT31;9308;48.550;9.108;2022-09-21T18:54:55;10.82;64.72